Time;durP1;ratioP1;P1;durP2;ratioP2;P2;SDS_P1;SDS_P2;PMS_P1;PMS_P2;Temp;Humidity;BMP_temperature;BMP_pressure;BME280_temperature;BME280_humidity;BME280_pressure;Samples;Min_cycle;Max_cycle;Signal;HPM_P1;HPM_P2
2021/12/24 00:00:21;;;;;;;31.80;19.02;;;10.00;99.90;;;9.20;100.00;100584.84;4106171;28;20027;-64
2021/12/24 00:02:22;;;;;;;26.42;18.10;;;10.10;99.90;;;9.19;100.00;100577.94;4121008;28;20437;-64
2021/12/24 00:04:24;;;;;;;28.83;17.92;;;10.10;99.90;;;9.21;100.00;100577.78;4106045;28;20049;-64
2021/12/24 00:06:25;;;;;;;32.50;20.50;;;10.00;99.90;;;9.25;100.00;100573.88;4120397;28;20043;-64
2021/12/24 00:08:26;;;;;;;30.13;18.95;;;10.00;99.90;;;9.23;100.00;100571.38;4106115;28;20483;-64
2021/12/24 00:10:30;;;;;;;26.63;17.38;;;10.00;99.90;;;9.21;100.00;100577.78;4120814;28;20422;-64
2021/12/24 00:12:33;;;;;;;47.25;19.40;;;10.00;99.90;;;9.19;100.00;100574.47;4105854;28;20054;-64
2021/12/24 00:14:34;;;;;;;26.88;16.08;;;10.00;99.90;;;9.18;100.00;100576.28;4120318;28;20553;-64
2021/12/24 00:16:41;;;;;;;26.30;16.45;;;10.00;99.90;;;9.20;100.00;100574.31;4104665;28;20024;-64
2021/12/24 00:18:56;;;;;;;57.72;21.00;;;10.00;99.90;;;9.19;100.00;100561.31;4120014;28;20018;-65
2021/12/24 00:36:59;;;;;;;28.67;16.98;;;10.00;99.90;;;9.37;100.00;100544.53;4117950;28;20058;-64
2021/12/24 00:39:00;;;;;;;26.20;16.90;;;10.00;99.90;;;9.36;100.00;100552.56;4105512;28;20027;-64
2021/12/24 00:41:01;;;;;;;30.92;17.23;;;10.10;99.90;;;9.38;100.00;100545.31;4120481;28;20039;-64
2021/12/24 00:43:03;;;;;;;27.02;15.00;;;10.00;99.90;;;9.32;100.00;100541.50;4104282;28;20110;-64
2021/12/24 00:45:05;;;;;;;37.38;17.40;;;10.10;99.90;;;9.30;100.00;100543.47;4104464;28;20066;-64
2021/12/24 00:47:06;;;;;;;41.58;17.63;;;10.10;99.90;;;9.31;100.00;100541.66;4105243;28;20036;-64
2021/12/24 00:49:07;;;;;;;40.30;17.58;;;10.50;99.90;;;9.30;100.00;100542.63;4120377;28;20035;-64
2021/12/24 00:51:20;;;;;;;30.23;17.13;;;10.10;99.90;;;9.37;100.00;100559.50;4105432;28;20039;-64
2021/12/24 00:55:33;;;;;;;43.33;17.95;;;9.90;99.90;;;9.28;100.00;100544.59;4119308;28;20086;-64
2021/12/24 00:57:47;;;;;;;41.72;17.75;;;10.10;99.90;;;9.29;100.00;100549.72;4105351;28;20173;-64
2021/12/24 00:59:48;;;;;;;23.77;14.75;;;10.00;99.90;;;9.26;100.00;100538.66;4119803;28;20034;-64
2021/12/24 01:01:49;;;;;;;27.38;14.57;;;10.10;99.90;;;9.26;100.00;100525.50;4103946;28;20495;-64
2021/12/24 01:03:50;;;;;;;25.55;15.70;;;10.00;99.90;;;9.31;100.00;100528.50;4105291;28;20027;-64
2021/12/24 01:05:51;;;;;;;94.80;22.80;;;10.00;99.90;;;9.28;100.00;100518.28;4105048;28;20059;-64
2021/12/24 01:07:53;;;;;;;30.63;15.40;;;10.00;99.90;;;9.24;100.00;100525.66;4135811;28;20026;-64
2021/12/24 01:09:54;;;;;;;31.70;15.10;;;10.10;99.90;;;9.23;100.00;100520.53;4103867;29;20548;-64
2021/12/24 01:11:55;;;;;;;31.80;15.82;;;10.00;99.90;;;9.20;100.00;100511.16;4104001;29;20110;-64
2021/12/24 01:13:57;;;;;;;33.78;17.30;;;10.00;99.90;;;9.25;100.00;100521.22;4105093;28;20039;-64
2021/12/24 01:16:23;;;;;;;24.30;16.23;;;10.00;99.90;;;9.26;100.00;100518.44;4105081;29;20110;-64
2021/12/24 01:20:50;;;;;;;30.55;16.10;;;9.90;99.90;;;9.26;100.00;100517.59;4116864;28;20023;-64
2021/12/24 01:25:05;;;;;;;25.65;15.43;;;10.10;99.90;;;9.30;100.00;100511.88;4119781;28;20046;-64
2021/12/24 01:28:00;;;;;;;26.80;17.50;;;10.10;99.90;;;9.32;100.00;100506.44;4118325;28;20461;-65
2021/12/24 01:38:55;;;;;;;44.17;19.00;;;10.00;99.90;;;9.27;100.00;100506.94;4117216;28;20077;-64
2021/12/24 01:42:57;;;;;;;31.90;16.30;;;10.00;99.90;;;9.24;100.00;100495.88;4119654;28;20514;-64
2021/12/24 01:44:58;;;;;;;29.08;16.08;;;10.00;99.90;;;9.29;100.00;100498.88;4119321;28;20038;-64
2021/12/24 01:47:03;;;;;;;29.40;16.33;;;10.00;99.90;;;9.32;100.00;100509.09;4133015;28;20030;-64
2021/12/24 01:49:04;;;;;;;27.38;16.88;;;10.10;99.90;;;9.34;100.00;100517.69;4119171;28;20082;-64
2021/12/24 01:51:05;;;;;;;36.58;16.88;;;10.10;99.90;;;9.27;100.00;100508.72;4104408;28;20098;-64
2021/12/24 01:53:07;;;;;;;27.90;17.13;;;10.00;99.90;;;9.28;100.00;100502.50;4119004;28;20031;-64
2021/12/24 01:55:10;;;;;;;21.27;13.65;;;10.00;99.90;;;9.27;100.00;100511.38;4119101;28;20029;-64
2021/12/24 01:57:12;;;;;;;24.67;15.32;;;10.20;99.90;;;9.27;100.00;100508.72;4102870;28;20126;-64
2021/12/24 01:59:13;;;;;;;22.85;14.57;;;10.20;99.90;;;9.29;100.00;100512.03;4104397;28;20050;-64
2021/12/24 02:01:15;;;;;;;31.25;16.05;;;10.00;99.90;;;9.26;100.00;100510.53;4119160;28;20544;-64
2021/12/24 02:03:17;;;;;;;25.25;15.65;;;10.00;99.90;;;9.25;100.00;100508.06;4119006;28;20031;-64
2021/12/24 02:05:19;;;;;;;22.45;14.65;;;10.00;99.90;;;9.24;100.00;100501.13;4119003;28;20039;-64
2021/12/24 02:07:20;;;;;;;22.95;15.10;;;10.00;99.90;;;9.24;100.00;100493.25;4118545;28;20039;-64
2021/12/24 02:09:20;;;;;;;25.92;15.77;;;10.00;99.90;;;9.17;100.00;100482.50;4104238;28;20475;-64
2021/12/24 02:11:23;;;;;;;25.63;14.68;;;10.10;99.90;;;9.23;100.00;100499.47;4118796;28;20077;-64
2021/12/24 02:13:24;;;;;;;26.77;14.90;;;9.70;99.90;;;9.22;100.00;100496.03;4119013;28;20049;-64
2021/12/24 02:17:52;;;;;;;32.42;15.02;;;10.20;99.90;;;9.22;100.00;100490.78;4118172;28;20058;-65
2021/12/24 02:29:19;;;;;;;33.08;15.23;;;10.00;99.90;;;9.23;100.00;100499.47;4116477;28;20038;-64
2021/12/24 02:31:24;;;;;;;25.25;14.50;;;10.00;99.90;;;9.22;100.00;100495.22;4104033;29;20066;-64
2021/12/24 02:33:25;;;;;;;23.65;14.30;;;10.10;99.90;;;9.22;100.00;100490.78;4103893;28;20032;-64
2021/12/24 02:35:26;;;;;;;27.75;15.02;;;10.00;99.90;;;9.26;100.00;100494.75;4118656;28;20081;-64
2021/12/24 02:37:27;;;;;;;23.98;14.75;;;10.00;99.90;;;9.21;100.00;100477.75;4133449;28;20026;-64
2021/12/24 02:39:29;;;;;;;22.92;14.23;;;10.00;99.90;;;9.25;100.00;100479.13;4103926;28;20027;-64
2021/12/24 02:41:30;;;;;;;24.52;13.70;;;10.00;99.90;;;9.24;100.00;100482.72;4118752;28;20572;-64
2021/12/24 02:43:31;;;;;;;24.17;13.90;;;10.00;99.90;;;9.22;100.00;100482.06;4118644;28;20035;-64
2021/12/24 02:45:34;;;;;;;28.58;13.98;;;10.00;99.90;;;9.23;100.00;100483.69;4103730;28;20114;-64
2021/12/24 02:48:45;;;;;;;19.95;13.65;;;10.00;99.90;;;9.23;100.00;100481.06;4103895;28;20052;-64
2021/12/24 02:54:20;;;;;;;28.90;15.63;;;10.00;99.90;;;9.26;100.00;100483.38;4116364;28;20049;-64
2021/12/24 02:56:26;;;;;;;43.42;16.75;;;10.00;99.90;;;9.27;100.00;100469.25;4103769;28;20027;-64
2021/12/24 02:58:27;;;;;;;23.77;14.65;;;10.00;99.90;;;9.32;100.00;100469.59;4117983;28;20066;-64
2021/12/24 03:00:29;;;;;;;38.38;15.88;;;10.00;99.90;;;9.28;100.00;100470.91;4118640;28;20109;-64
2021/12/24 03:02:30;;;;;;;21.98;14.25;;;10.10;99.90;;;9.30;100.00;100459.25;4103807;28;20128;-64
2021/12/24 03:04:31;;;;;;;32.78;13.75;;;10.00;99.90;;;9.30;100.00;100472.41;4118688;28;20027;-64
2021/12/24 03:06:41;;;;;;;23.63;14.70;;;10.00;99.90;;;9.29;100.00;100469.91;4118092;28;20179;-64
2021/12/24 03:08:42;;;;;;;23.88;14.13;;;10.00;99.90;;;9.28;100.00;100468.28;4104541;28;20043;-65
2021/12/24 03:10:43;;;;;;;26.88;14.07;;;10.00;99.90;;;9.25;100.00;100458.91;4107055;29;20071;-65
2021/12/24 03:12:48;;;;;;;18.15;12.45;;;10.00;99.90;;;9.26;100.00;100462.31;4106708;28;20031;-64
2021/12/24 03:14:49;;;;;;;41.38;13.65;;;10.00;99.90;;;9.21;100.00;100451.44;4106694;29;21394;-64
2021/12/24 03:16:57;;;;;;;42.13;15.60;;;10.00;99.90;;;9.28;100.00;100447.22;4106922;29;20031;-64
2021/12/24 03:18:58;;;;;;;24.10;13.98;;;10.00;99.90;;;9.27;100.00;100443.75;4105405;28;20038;-64
2021/12/24 03:21:11;;;;;;;27.40;14.40;;;10.00;99.90;;;9.23;100.00;100441.56;4106799;28;20031;-64
2021/12/24 03:23:32;;;;;;;32.85;14.15;;;10.00;99.90;;;9.21;100.00;100443.56;4106788;28;20114;-64
2021/12/24 03:25:33;;;;;;;19.90;12.70;;;9.90;99.90;;;9.24;100.00;100440.59;4105561;28;20032;-64
2021/12/24 03:27:34;;;;;;;22.65;12.95;;;9.90;99.90;;;9.22;100.00;100439.94;4121304;28;20027;-64
2021/12/24 03:29:36;;;;;;;27.08;14.48;;;10.00;99.90;;;9.22;100.00;100442.56;4094934;28;20035;-64
2021/12/24 03:31:38;;;;;;;19.08;12.30;;;10.00;99.90;;;9.19;100.00;100435.81;4106607;28;20451;-64
2021/12/24 03:33:39;;;;;;;22.17;12.73;;;10.00;99.90;;;9.23;100.00;100433.69;4106620;28;20027;-64
2021/12/24 03:35:40;;;;;;;45.78;15.18;;;10.00;99.90;;;9.25;100.00;100422.03;4105081;28;20031;-64
2021/12/24 03:37:41;;;;;;;43.75;14.98;;;10.00;99.90;;;9.23;100.00;100421.34;4106304;28;20093;-64
2021/12/24 03:39:42;;;;;;;32.58;13.70;;;10.00;99.90;;;9.24;100.00;100416.91;4106490;28;20023;-64
2021/12/24 03:41:44;;;;;;;22.50;12.40;;;10.00;99.90;;;9.26;100.00;100409.69;4106459;28;20090;-64
2021/12/24 03:43:46;;;;;;;79.15;16.90;;;10.10;99.90;;;9.27;100.00;100416.63;4121184;28;20514;-64
2021/12/24 03:46:01;;;;;;;18.02;11.02;;;10.00;99.90;;;9.26;100.00;100409.69;4121312;28;20113;-64
2021/12/24 03:48:13;;;;;;;;;;;10.00;99.90;;;9.24;100.00;100406.41;4119948;28;20521;-64
2021/12/24 03:50:14;;;;;;;63.28;14.35;;;10.00;99.90;;;9.21;100.00;100407.53;4106256;28;19917;-64
2021/12/24 03:56:47;;;;;;;36.95;13.50;;;10.00;99.90;;;9.26;100.00;100391.25;4118837;28;20066;-64
2021/12/24 03:58:48;;;;;;;57.92;13.07;;;9.50;99.90;;;9.20;100.00;100390.09;4106324;28;20439;-64
2021/12/24 04:00:49;;;;;;;61.08;14.20;;;10.00;99.90;;;9.19;100.00;100393.72;4120857;28;20058;-64
2021/12/24 04:02:50;;;;;;;23.13;11.05;;;10.00;99.90;;;9.21;100.00;100383.03;4104842;28;20034;-64
2021/12/24 04:04:51;;;;;;;18.17;10.07;;;10.00;99.90;;;9.20;100.00;100378.75;4105998;28;20446;-64
2021/12/24 04:06:52;;;;;;;35.33;11.90;;;9.90;99.90;;;9.26;100.00;100383.38;4105784;28;20059;-64
2021/12/24 04:08:54;;;;;;;25.08;10.68;;;8.90;99.90;;;9.24;100.00;100385.34;4120949;28;20057;-64
2021/12/24 04:10:55;;;;;;;87.63;15.00;;;10.00;99.90;;;9.18;100.00;100378.91;4105967;28;20031;-64
2021/12/24 04:12:56;;;;;;;41.65;11.93;;;10.00;99.90;;;9.18;100.00;100375.44;4105963;28;20035;-64
2021/12/24 04:14:57;;;;;;;49.53;10.25;;;10.00;99.90;;;9.21;100.00;100380.38;4106113;28;20027;-64
2021/12/24 04:16:58;;;;;;;45.00;10.43;;;10.00;99.90;;;9.27;100.00;100380.59;4106002;28;20538;-64
2021/12/24 04:19:20;;;;;;;15.25;7.55;;;10.00;99.90;;;9.22;100.00;100382.88;4105963;28;20043;-64
2021/12/24 04:25:59;;;;;;;11.73;7.95;;;10.00;99.90;;;9.29;100.00;100383.88;4118515;28;20046;-64
2021/12/24 04:28:00;;;;;;;48.90;10.32;;;10.00;99.90;;;9.19;100.00;100377.94;4120716;28;20486;-64
2021/12/24 04:30:13;;;;;;;31.25;9.30;;;10.30;99.90;;;9.25;100.00;100381.75;4120774;28;20034;-64
2021/12/24 04:32:22;;;;;;;9.20;7.30;;;10.00;99.90;;;9.22;100.00;100376.78;4105694;28;20027;-64
2021/12/24 04:34:27;;;;;;;16.73;8.30;;;9.90;99.90;;;9.23;100.00;100362.63;4119742;28;20022;-64
2021/12/24 04:39:07;;;;;;;16.85;8.52;;;10.00;99.90;;;9.24;100.00;100357.22;4104765;29;19993;-64
2021/12/24 05:01:42;;;;;;;28.00;9.60;;;10.00;99.90;;;9.18;100.00;100354.38;4117859;28;20041;-64
2021/12/24 05:03:45;;;;;;;20.55;8.85;;;10.00;99.90;;;9.18;100.00;100354.38;4105307;28;20031;-64
2021/12/24 05:05:50;;;;;;;14.23;8.45;;;9.90;99.90;;;9.17;100.00;100347.50;4119725;28;20133;-64
2021/12/24 05:09:53;;;;;;;30.60;10.23;;;9.90;99.90;;;9.18;100.00;100355.22;4119992;28;20045;-64
2021/12/24 05:11:54;;;;;;;17.90;8.85;;;9.90;99.90;;;9.27;100.00;100363.97;4119962;28;20034;-64
2021/12/24 05:13:55;;;;;;;18.92;9.32;;;10.00;99.90;;;9.29;100.00;100362.00;4105121;28;20102;-64
2021/12/24 05:16:05;;;;;;;36.28;12.00;;;10.00;99.90;;;9.20;100.00;100355.88;4119860;28;20033;-64
2021/12/24 05:18:26;;;;;;;27.70;11.35;;;10.00;99.90;;;9.22;100.00;100350.47;4105002;28;20509;-64
2021/12/24 05:22:47;;;;;;;19.38;8.73;;;10.00;99.90;;;9.32;100.00;100335.38;4129567;28;20030;-64
2021/12/24 05:24:48;;;;;;;20.80;9.50;;;10.00;99.90;;;9.27;100.00;100329.75;4103663;28;20027;-64
2021/12/24 05:26:58;;;;;;;19.20;9.70;;;10.00;99.90;;;9.21;100.00;100333.84;4104912;28;20038;-64
2021/12/24 05:29:00;;;;;;;23.67;9.70;;;10.00;99.90;;;9.23;100.00;100321.34;4119503;28;20030;-64
2021/12/24 05:31:01;;;;;;;19.95;9.73;;;10.00;99.90;;;9.21;100.00;100317.22;4104184;28;20113;-64
2021/12/24 05:33:02;;;;;;;15.50;9.50;;;10.00;99.90;;;9.20;100.00;100316.41;4103343;29;20031;-64
2021/12/24 05:35:05;;;;;;;24.13;10.50;;;10.00;99.90;;;9.24;100.00;100311.66;4119623;28;20462;-64
2021/12/24 05:37:06;;;;;;;28.10;10.25;;;10.00;99.90;;;9.31;100.00;100312.69;4103203;28;20047;-64
2021/12/24 05:39:08;;;;;;;44.70;11.40;;;10.00;99.90;;;9.33;100.00;100313.34;4104765;28;20034;-64
2021/12/24 05:41:10;;;;;;;33.88;10.20;;;10.00;99.90;;;9.21;100.00;100311.97;4119516;28;20089;-64
2021/12/24 05:43:11;;;;;;;39.42;11.05;;;10.00;99.90;;;9.25;100.00;100322.03;4119439;28;20022;-64
2021/12/24 05:45:12;;;;;;;51.22;12.30;;;10.30;99.90;;;9.24;100.00;100324.81;4119339;28;20054;-64
2021/12/24 05:47:13;;;;;;;47.85;12.15;;;10.00;99.90;;;9.24;100.00;100317.75;4104615;28;20023;-64
2021/12/24 05:49:15;;;;;;;56.47;12.90;;;10.00;99.90;;;9.24;100.00;100328.28;4104586;29;20034;-64
2021/12/24 05:51:15;;;;;;;45.83;12.60;;;10.00;99.90;;;9.23;100.00;100318.72;4104196;29;20035;-64
2021/12/24 05:53:17;;;;;;;36.65;11.27;;;10.00;99.90;;;9.30;100.00;100339.97;4119257;28;20023;-64
2021/12/24 05:55:18;;;;;;;19.25;10.85;;;10.10;99.90;;;9.26;100.00;100342.09;4119295;28;20040;-64
2021/12/24 05:57:19;;;;;;;24.45;10.43;;;10.10;99.90;;;9.34;100.00;100336.06;4103243;28;20060;-64
2021/12/24 05:59:20;;;;;;;74.28;14.25;;;10.60;99.90;;;9.23;100.00;100345.03;4103171;28;20027;-64
2021/12/24 06:01:23;;;;;;;38.97;12.82;;;10.10;99.90;;;9.17;100.00;100353.56;4115307;28;20058;-64
2021/12/24 06:03:24;;;;;;;34.13;11.77;;;10.00;99.90;;;9.13;100.00;100352.25;4118429;28;20513;-64
2021/12/24 06:05:25;;;;;;;36.42;11.60;;;10.00;99.90;;;9.17;100.00;100356.19;4102999;28;20050;-64
2021/12/24 06:07:26;;;;;;;43.05;12.00;;;10.00;99.90;;;9.20;100.00;100360.34;4118561;28;20078;-64
2021/12/24 06:09:26;;;;;;;15.45;10.05;;;10.00;99.90;;;9.20;100.00;100352.44;4119066;28;20561;-64
2021/12/24 06:11:27;;;;;;;14.80;9.25;;;10.00;99.90;;;9.31;100.00;100350.34;4118750;28;20050;-64
2021/12/24 06:13:29;;;;;;;21.83;11.82;;;10.00;99.90;;;9.24;100.00;100337.97;4103023;28;20491;-64
2021/12/24 06:15:40;;;;;;;40.75;12.10;;;10.00;99.90;;;9.23;100.00;100341.56;4104075;28;20023;-64
2021/12/24 06:17:41;;;;;;;17.92;10.93;;;10.00;99.90;;;9.31;100.00;100344.25;4117788;28;20031;-64
2021/12/24 06:19:43;;;;;;;18.20;10.43;;;10.00;99.90;;;9.25;100.00;100342.25;4104064;28;20058;-64
2021/12/24 06:21:44;;;;;;;38.65;12.48;;;10.00;99.90;;;9.33;100.00;100355.44;4118638;28;20034;-64
2021/12/24 06:23:47;;;;;;;85.30;15.25;;;10.10;99.90;;;9.31;100.00;100339.00;4104093;28;20027;-65
2021/12/24 06:25:50;;;;;;;28.83;12.32;;;10.00;99.90;;;9.26;100.00;100330.72;4104053;29;20039;-64
2021/12/24 06:27:51;;;;;;;30.65;11.60;;;10.00;99.90;;;9.30;100.00;100326.81;4118715;28;20062;-64
2021/12/24 06:29:53;;;;;;;44.50;14.00;;;10.00;99.90;;;9.27;100.00;100321.88;4104045;29;20027;-64
2021/12/24 06:31:54;;;;;;;40.30;13.20;;;10.10;99.90;;;9.27;100.00;100327.13;4103980;28;20443;-64
2021/12/24 06:33:55;;;;;;;46.83;14.63;;;10.00;99.90;;;9.25;100.00;100313.31;4104043;29;20110;-64
2021/12/24 06:35:57;;;;;;;26.55;12.63;;;10.10;99.90;;;9.27;100.00;100308.72;4118605;28;20023;-64
2021/12/24 06:37:58;;;;;;;19.77;12.75;;;10.10;99.90;;;9.26;100.00;100312.31;4118602;28;20054;-64
2021/12/24 06:39:59;;;;;;;20.15;12.90;;;9.70;99.90;;;9.28;100.00;100319.09;4118836;28;20048;-64
2021/12/24 06:42:00;;;;;;;55.83;16.48;;;10.00;99.90;;;9.27;100.00;100311.34;4103964;28;20159;-64
2021/12/24 06:44:03;;;;;;;45.10;14.35;;;10.10;99.90;;;9.27;100.00;100314.81;4103749;28;20031;-64
2021/12/24 06:46:11;;;;;;;64.82;17.02;;;10.60;99.90;;;9.29;100.00;100312.00;4118554;28;20038;-64
2021/12/24 06:48:13;;;;;;;50.33;15.35;;;10.10;99.90;;;9.24;100.00;100309.03;4117823;28;20027;-65
2021/12/24 06:50:14;;;;;;;31.52;13.38;;;10.00;99.90;;;9.31;100.00;100302.16;4118404;28;20074;-64
2021/12/24 06:52:15;;;;;;;26.17;13.70;;;10.10;99.90;;;9.30;100.00;100303.97;4121720;28;20034;-64
2021/12/24 06:54:17;;;;;;;19.85;13.77;;;10.00;99.90;;;9.33;100.00;100308.06;4103826;28;20065;-64
2021/12/24 06:56:19;;;;;;;39.92;15.65;;;10.00;99.90;;;9.28;100.00;100313.81;4118418;28;20062;-64
2021/12/24 06:58:20;;;;;;;35.70;16.15;;;10.00;99.90;;;9.28;100.00;100313.00;4100730;29;20035;-64
2021/12/24 07:00:23;;;;;;;41.13;17.65;;;10.00;99.90;;;9.28;100.00;100307.72;4104040;28;20026;-64
2021/12/24 07:02:24;;;;;;;22.52;13.50;;;10.10;99.90;;;9.26;100.00;100293.88;4118468;28;20039;-64
2021/12/24 07:04:26;;;;;;;21.33;14.18;;;10.00;99.90;;;9.27;100.00;100295.53;4118442;28;20058;-64
2021/12/24 07:06:28;;;;;;;45.78;16.00;;;10.00;99.90;;;9.22;100.00;100298.66;4103181;28;20047;-64
2021/12/24 07:08:29;;;;;;;87.22;19.73;;;10.00;99.90;;;9.18;100.00;100296.50;4103650;28;20503;-64
2021/12/24 07:10:30;;;;;;;34.60;15.02;;;10.10;99.90;;;9.15;100.00;100300.28;4102414;28;20411;-64
2021/12/24 07:12:32;;;;;;;40.40;15.18;;;10.00;99.90;;;9.23;100.00;100297.66;4118316;28;20031;-64
2021/12/24 07:14:37;;;;;;;25.58;14.05;;;9.90;99.90;;;9.20;100.00;100300.63;4118186;28;20098;-64
2021/12/24 07:16:37;;;;;;;;;;;9.90;99.90;;;9.09;100.00;100292.19;4118509;28;20054;-64
2021/12/24 07:18:38;;;;;;;19.33;12.20;;;9.90;99.90;;;9.01;100.00;100284.25;4102470;29;19910;-64
2021/12/24 07:20:40;;;;;;;19.48;12.02;;;9.90;99.90;;;9.07;100.00;100283.63;4103596;28;20143;-64
2021/12/24 07:22:41;;;;;;;60.85;15.02;;;9.80;99.90;;;9.00;100.00;100283.41;4103113;28;20019;-64
2021/12/24 07:24:42;;;;;;;23.55;12.95;;;9.80;99.90;;;9.02;100.00;100281.44;4118386;28;20027;-64
2021/12/24 07:26:43;;;;;;;30.33;13.90;;;9.80;99.90;;;8.99;100.00;100284.41;4118253;28;20023;-64
2021/12/24 07:28:44;;;;;;;72.80;16.40;;;9.80;99.90;;;8.94;100.00;100281.41;4103526;28;20028;-64
2021/12/24 07:30:45;;;;;;;49.58;13.95;;;9.70;99.90;;;8.91;100.00;100279.09;4118155;28;20058;-64
2021/12/24 07:32:46;;;;;;;97.68;17.52;;;9.70;99.90;;;8.83;100.00;100285.16;4118396;28;20066;-64
2021/12/24 07:34:47;;;;;;;31.30;15.55;;;9.80;99.90;;;8.96;100.00;100291.81;4103429;28;20098;-64
2021/12/24 07:36:48;;;;;;;40.67;15.48;;;9.70;99.90;;;8.95;100.00;100277.00;4103192;29;20037;-64
2021/12/24 07:38:49;;;;;;;19.00;12.45;;;9.70;99.90;;;8.94;100.00;100270.06;4118009;28;20023;-64
2021/12/24 07:40:50;;;;;;;52.65;15.80;;;9.70;99.90;;;8.90;100.00;100270.38;4103414;28;20042;-64
2021/12/24 07:42:51;;;;;;;26.55;12.98;;;9.80;99.90;;;8.94;100.00;100272.69;4103429;29;20035;-64
2021/12/24 07:44:52;;;;;;;26.88;13.30;;;9.70;99.90;;;8.96;100.00;100265.50;4118153;28;20066;-64
2021/12/24 07:46:56;;;;;;;21.70;12.90;;;9.70;99.90;;;9.02;100.00;100264.88;4117937;28;20098;-64
2021/12/24 07:49:11;;;;;;;24.02;13.18;;;9.70;99.90;;;9.04;100.00;100262.91;4090079;29;20031;-64
2021/12/24 07:53:31;;;;;;;69.55;16.10;;;9.70;99.90;;;9.01;100.00;100279.00;4103375;29;20045;-64
2021/12/24 07:55:34;;;;;;;41.25;12.95;;;9.80;99.90;;;8.93;100.00;100271.06;4104040;28;20052;-64
2021/12/24 07:57:37;;;;;;;16.92;11.00;;;9.70;99.90;;;9.02;100.00;100267.50;4106189;28;20035;-64
2021/12/24 07:59:41;;;;;;;70.60;16.15;;;9.80;99.90;;;8.86;100.00;100271.69;4106188;28;20032;-64
2021/12/24 08:01:44;;;;;;;21.98;11.25;;;9.70;99.90;;;8.85;100.00;100267.41;4106227;28;20031;-64
2021/12/24 08:03:45;;;;;;;38.38;12.98;;;9.70;99.90;;;8.92;100.00;100264.16;4106292;28;20376;-64
2021/12/24 08:05:48;;;;;;;18.95;11.05;;;9.70;99.90;;;8.92;100.00;100261.53;4105877;28;20039;-64
2021/12/24 08:07:51;;;;;;;19.73;11.40;;;9.60;99.90;;;8.96;100.00;100258.41;4105744;28;20031;-64
2021/12/24 08:09:52;;;;;;;20.38;10.77;;;9.70;99.90;;;8.93;100.00;100252.66;4105796;28;20039;-64
2021/12/24 08:11:53;;;;;;;17.15;10.25;;;9.70;99.90;;;8.93;100.00;100250.03;4120608;28;20585;-64
2021/12/24 08:13:54;;;;;;;23.60;11.60;;;9.70;99.90;;;8.99;100.00;100249.41;4104516;28;20027;-64
2021/12/24 08:15:55;;;;;;;33.58;12.77;;;9.70;99.90;;;8.99;100.00;100241.50;4105770;29;20019;-64
2021/12/24 08:17:56;;;;;;;35.70;13.77;;;10.00;99.90;;;9.03;100.00;100253.34;4120417;28;20038;-64
2021/12/24 08:19:57;;;;;;;44.38;13.48;;;11.50;99.90;;;8.95;100.00;100258.56;4120565;28;20078;-64
2021/12/24 08:21:59;;;;;;;58.63;15.55;;;9.70;99.90;;;8.91;100.00;100250.16;4105404;28;20038;-64
2021/12/24 08:24:00;;;;;;;115.72;18.67;;;9.70;99.90;;;8.89;100.00;100245.06;4105783;28;20093;-64
2021/12/24 08:26:01;;;;;;;24.95;10.98;;;9.70;99.90;;;8.95;100.00;100259.41;4105612;28;20086;-64
2021/12/24 08:28:02;;;;;;;14.90;10.52;;;9.70;99.90;;;8.95;100.00;100258.56;4105622;28;20039;-64
2021/12/24 08:30:07;;;;;;;25.40;12.45;;;9.70;99.90;;;9.03;100.00;100253.34;4120495;28;20031;-64
2021/12/24 08:32:08;;;;;;;;;;;9.80;99.90;;;8.98;100.00;100253.00;4120729;28;20038;-64
2021/12/24 08:34:10;;;;;;;87.22;16.23;;;9.80;99.90;;;8.89;100.00;100250.34;4104196;29;19942;-64
2021/12/24 08:36:11;;;;;;;116.20;19.48;;;9.90;99.90;;;9.03;100.00;100253.34;4105280;29;20039;-64
2021/12/24 08:38:13;;;;;;;18.08;12.05;;;9.80;99.90;;;9.07;100.00;100254.69;4120203;28;20034;-64
2021/12/24 08:40:14;;;;;;;18.15;12.07;;;9.80;99.90;;;9.02;100.00;100243.81;4120242;28;20461;-64
2021/12/24 08:42:18;;;;;;;86.18;18.30;;;9.80;99.90;;;9.08;100.00;100245.81;4120066;28;20490;-64
2021/12/24 08:44:19;;;;;;;23.83;13.18;;;9.80;99.90;;;9.02;100.00;100247.25;4120316;28;20091;-64
2021/12/24 08:46:20;;;;;;;17.13;12.55;;;9.80;99.90;;;9.03;100.00;100245.44;4105412;28;20020;-64
2021/12/24 08:48:21;;;;;;;40.85;14.82;;;9.90;99.90;;;9.03;100.00;100250.72;4105382;29;20476;-64
2021/12/24 08:50:22;;;;;;;35.90;15.52;;;10.20;99.90;;;8.99;100.00;100237.03;4105216;28;20047;-64
2021/12/24 08:52:23;;;;;;;46.15;15.93;;;9.70;99.90;;;9.00;100.00;100243.97;4105067;29;20031;-64
2021/12/24 08:54:25;;;;;;;32.20;13.88;;;9.90;99.90;;;9.10;100.00;100249.94;4120106;28;20102;-64
2021/12/24 08:56:26;;;;;;;47.92;16.05;;;9.90;99.90;;;9.14;100.00;100245.19;4120050;28;20038;-64
2021/12/24 08:58:27;;;;;;;43.60;15.65;;;9.90;99.90;;;9.15;100.00;100249.44;4119954;28;20061;-64
2021/12/24 09:00:29;;;;;;;33.13;15.68;;;10.50;99.90;;;9.16;100.00;100254.56;4120062;28;20030;-64
2021/12/24 09:02:30;;;;;;;24.05;13.82;;;11.70;99.90;;;9.21;100.00;100254.91;4105136;29;20069;-64
2021/12/24 09:04:31;;;;;;;25.55;14.82;;;10.40;99.90;;;9.20;100.00;100253.25;4119832;28;20031;-64
2021/12/24 09:06:32;;;;;;;32.90;17.17;;;10.00;99.90;;;9.33;100.00;100258.91;4101981;28;20051;-64
2021/12/24 09:08:34;;;;;;;23.88;16.42;;;10.10;99.90;;;9.26;100.00;100251.78;4105196;28;20035;-64
2021/12/24 09:10:35;;;;;;;43.20;21.42;;;10.10;99.90;;;9.30;100.00;100251.31;4119808;28;20019;-64
2021/12/24 09:12:36;;;;;;;52.95;24.48;;;10.10;99.90;;;9.30;100.00;100255.75;4119789;28;20383;-64
2021/12/24 09:14:37;;;;;;;49.13;32.78;;;10.20;99.90;;;9.30;100.00;100248.69;4119661;28;20031;-64
2021/12/24 09:16:39;;;;;;;133.55;55.53;;;10.20;99.90;;;9.31;100.00;100247.72;4105020;28;20406;-64
2021/12/24 09:18:42;;;;;;;80.25;40.13;;;10.20;99.90;;;9.39;100.00;100246.91;4105136;28;20054;-64
2021/12/24 09:20:44;;;;;;;33.95;24.55;;;10.20;99.90;;;9.49;100.00;100239.69;4104886;28;20051;-64
2021/12/24 09:22:47;;;;;;;97.30;34.78;;;10.20;99.90;;;9.42;100.00;100234.25;4104390;28;20055;-64
2021/12/24 09:24:51;;;;;;;86.13;29.52;;;10.20;99.90;;;9.40;100.00;100228.31;4104940;29;20023;-64
2021/12/24 09:26:57;;;;;;;37.40;21.35;;;10.30;99.90;;;9.57;100.00;100229.16;4104947;28;20094;-64
2021/12/24 09:29:03;;;;;;;56.35;18.35;;;10.40;99.90;;;9.60;100.00;100223.59;4104822;28;20027;-64
2021/12/24 09:31:04;;;;;;;32.55;18.70;;;10.40;99.90;;;9.65;100.00;100231.81;4118972;28;20030;-64
2021/12/24 09:33:05;;;;;;;34.20;18.88;;;10.50;99.90;;;9.65;100.00;100231.81;4119626;28;20035;-64
2021/12/24 09:35:08;;;;;;;29.27;17.65;;;10.50;99.90;;;9.71;100.00;100233.78;4104729;29;20059;-64
2021/12/24 09:37:09;;;;;;;27.40;17.27;;;10.60;99.90;;;9.80;100.00;100230.19;4119037;28;20031;-64
2021/12/24 09:39:10;;;;;;;32.30;18.10;;;10.70;99.90;;;9.75;100.00;100235.13;4119499;28;20027;-64
2021/12/24 09:41:11;;;;;;;40.35;19.70;;;10.60;99.90;;;9.76;100.00;100228.06;4125769;28;20033;-64
2021/12/24 09:43:12;;;;;;;40.60;20.30;;;10.70;99.90;;;9.82;100.00;100244.03;4104535;28;20410;-64
2021/12/24 09:45:14;;;;;;;32.80;18.80;;;10.70;99.90;;;9.72;100.00;100235.44;4119177;28;20066;-64
2021/12/24 09:47:15;;;;;;;37.03;18.45;;;10.70;99.90;;;9.74;100.00;100230.00;4119283;28;20462;-64
2021/12/24 09:49:17;;;;;;;34.80;19.00;;;10.70;99.90;;;9.78;100.00;100236.59;4119291;28;20031;-64
2021/12/24 09:51:18;;;;;;;40.28;24.05;;;10.70;99.90;;;9.67;100.00;100231.66;4118807;28;20039;-64